sensor_id;sensor_type;location;lat;lon;timestamp;P1;durP1;ratioP1;P2;durP2;ratioP2
8046;SDS011;67150;42.516;23.358;2023-05-17T00:00:39;6.10;;;3.70;;
8046;SDS011;67150;42.516;23.358;2023-05-17T00:03:07;9.07;;;3.80;;
8046;SDS011;67150;42.516;23.358;2023-05-17T00:05:34;5.63;;;3.83;;
8046;SDS011;67150;42.516;23.358;2023-05-17T00:08:01;6.07;;;3.73;;
8046;SDS011;67150;42.516;23.358;2023-05-17T00:10:30;3.60;;;3.30;;
8046;SDS011;67150;42.516;23.358;2023-05-17T00:12:57;7.33;;;4.20;;
8046;SDS011;67150;42.516;23.358;2023-05-17T00:15:25;5.47;;;3.40;;
8046;SDS011;67150;42.516;23.358;2023-05-17T00:17:52;4.03;;;3.20;;
8046;SDS011;67150;42.516;23.358;2023-05-17T00:20:19;4.03;;;3.23;;
8046;SDS011;67150;42.516;23.358;2023-05-17T00:22:47;8.17;;;3.40;;
8046;SDS011;67150;42.516;23.358;2023-05-17T00:25:14;6.40;;;3.50;;
8046;SDS011;67150;42.516;23.358;2023-05-17T00:27:43;5.27;;;3.37;;
8046;SDS011;67150;42.516;23.358;2023-05-17T00:30:10;6.60;;;3.73;;
8046;SDS011;67150;42.516;23.358;2023-05-17T00:32:37;4.40;;;3.53;;
8046;SDS011;67150;42.516;23.358;2023-05-17T00:35:05;6.37;;;3.83;;
8046;SDS011;67150;42.516;23.358;2023-05-17T00:37:33;8.77;;;3.50;;
8046;SDS011;67150;42.516;23.358;2023-05-17T00:40:00;4.60;;;3.30;;
8046;SDS011;67150;42.516;23.358;2023-05-17T00:42:27;6.23;;;3.30;;
8046;SDS011;67150;42.516;23.358;2023-05-17T00:44:56;5.20;;;3.37;;
8046;SDS011;67150;42.516;23.358;2023-05-17T00:47:23;6.20;;;3.43;;
8046;SDS011;67150;42.516;23.358;2023-05-17T00:49:51;5.90;;;3.67;;
8046;SDS011;67150;42.516;23.358;2023-05-17T00:52:18;6.13;;;3.03;;
8046;SDS011;67150;42.516;23.358;2023-05-17T00:54:46;7.50;;;3.87;;
8046;SDS011;67150;42.516;23.358;2023-05-17T00:57:13;7.30;;;3.60;;
8046;SDS011;67150;42.516;23.358;2023-05-17T00:59:42;5.23;;;3.40;;
8046;SDS011;67150;42.516;23.358;2023-05-17T01:02:12;4.53;;;3.10;;
8046;SDS011;67150;42.516;23.358;2023-05-17T01:04:39;4.80;;;3.50;;
8046;SDS011;67150;42.516;23.358;2023-05-17T01:07:07;6.33;;;3.33;;
8046;SDS011;67150;42.516;23.358;2023-05-17T01:09:35;4.70;;;3.63;;
8046;SDS011;67150;42.516;23.358;2023-05-17T01:12:05;6.63;;;3.30;;
8046;SDS011;67150;42.516;23.358;2023-05-17T01:14:40;5.70;;;3.63;;
8046;SDS011;67150;42.516;23.358;2023-05-17T01:17:19;6.80;;;3.90;;
8046;SDS011;67150;42.516;23.358;2023-05-17T01:20:00;5.07;;;3.70;;
8046;SDS011;67150;42.516;23.358;2023-05-17T01:22:32;5.50;;;3.80;;
8046;SDS011;67150;42.516;23.358;2023-05-17T01:25:25;6.97;;;4.37;;
8046;SDS011;67150;42.516;23.358;2023-05-17T01:27:58;6.50;;;3.83;;
8046;SDS011;67150;42.516;23.358;2023-05-17T01:30:27;7.63;;;4.30;;
8046;SDS011;67150;42.516;23.358;2023-05-17T01:32:55;7.83;;;4.17;;
8046;SDS011;67150;42.516;23.358;2023-05-17T01:35:24;5.33;;;4.33;;
8046;SDS011;67150;42.516;23.358;2023-05-17T01:37:52;10.00;;;5.03;;
8046;SDS011;67150;42.516;23.358;2023-05-17T01:40:19;5.87;;;3.90;;
8046;SDS011;67150;42.516;23.358;2023-05-17T01:42:47;7.07;;;4.87;;
8046;SDS011;67150;42.516;23.358;2023-05-17T01:45:22;7.07;;;4.60;;
8046;SDS011;67150;42.516;23.358;2023-05-17T01:47:55;6.87;;;4.70;;
8046;SDS011;67150;42.516;23.358;2023-05-17T01:50:30;7.20;;;5.10;;
8046;SDS011;67150;42.516;23.358;2023-05-17T01:53:00;7.87;;;5.03;;
8046;SDS011;67150;42.516;23.358;2023-05-17T01:55:32;7.13;;;5.53;;
8046;SDS011;67150;42.516;23.358;2023-05-17T01:58:05;8.47;;;4.93;;
8046;SDS011;67150;42.516;23.358;2023-05-17T02:00:35;7.67;;;5.60;;
8046;SDS011;67150;42.516;23.358;2023-05-17T02:03:04;8.43;;;6.10;;
8046;SDS011;67150;42.516;23.358;2023-05-17T02:05:32;7.20;;;5.10;;
8046;SDS011;67150;42.516;23.358;2023-05-17T02:07:59;9.70;;;5.37;;
8046;SDS011;67150;42.516;23.358;2023-05-17T02:10:26;10.73;;;7.10;;
8046;SDS011;67150;42.516;23.358;2023-05-17T02:12:53;11.57;;;6.27;;
8046;SDS011;67150;42.516;23.358;2023-05-17T02:15:21;8.57;;;6.17;;
8046;SDS011;67150;42.516;23.358;2023-05-17T02:17:49;11.70;;;7.50;;
8046;SDS011;67150;42.516;23.358;2023-05-17T02:20:17;10.40;;;6.43;;
8046;SDS011;67150;42.516;23.358;2023-05-17T02:22:44;9.30;;;6.57;;
8046;SDS011;67150;42.516;23.358;2023-05-17T02:25:11;11.73;;;6.70;;
8046;SDS011;67150;42.516;23.358;2023-05-17T02:27:38;11.63;;;7.03;;
8046;SDS011;67150;42.516;23.358;2023-05-17T02:30:06;11.10;;;6.47;;
8046;SDS011;67150;42.516;23.358;2023-05-17T02:32:34;7.80;;;5.90;;
8046;SDS011;67150;42.516;23.358;2023-05-17T02:35:04;8.83;;;6.53;;
8046;SDS011;67150;42.516;23.358;2023-05-17T02:37:32;8.07;;;6.83;;
8046;SDS011;67150;42.516;23.358;2023-05-17T02:39:59;12.13;;;7.67;;
8046;SDS011;67150;42.516;23.358;2023-05-17T02:42:28;9.50;;;6.80;;
8046;SDS011;67150;42.516;23.358;2023-05-17T02:44:55;9.00;;;6.83;;
8046;SDS011;67150;42.516;23.358;2023-05-17T02:47:23;9.40;;;7.17;;
8046;SDS011;67150;42.516;23.358;2023-05-17T02:49:50;8.60;;;6.73;;
8046;SDS011;67150;42.516;23.358;2023-05-17T02:52:19;8.47;;;7.00;;
8046;SDS011;67150;42.516;23.358;2023-05-17T02:54:46;8.90;;;6.93;;
8046;SDS011;67150;42.516;23.358;2023-05-17T02:57:13;9.03;;;7.70;;
8046;SDS011;67150;42.516;23.358;2023-05-17T02:59:41;10.20;;;7.63;;
8046;SDS011;67150;42.516;23.358;2023-05-17T03:02:08;12.23;;;7.83;;
8046;SDS011;67150;42.516;23.358;2023-05-17T03:04:35;8.07;;;7.23;;
8046;SDS011;67150;42.516;23.358;2023-05-17T03:07:03;10.73;;;8.37;;
8046;SDS011;67150;42.516;23.358;2023-05-17T03:09:32;8.93;;;7.40;;
8046;SDS011;67150;42.516;23.358;2023-05-17T03:11:59;9.87;;;8.47;;
8046;SDS011;67150;42.516;23.358;2023-05-17T03:14:27;10.17;;;7.50;;
8046;SDS011;67150;42.516;23.358;2023-05-17T03:16:54;8.77;;;7.70;;
8046;SDS011;67150;42.516;23.358;2023-05-17T03:19:21;10.07;;;8.27;;
8046;SDS011;67150;42.516;23.358;2023-05-17T03:21:49;9.93;;;8.33;;
8046;SDS011;67150;42.516;23.358;2023-05-17T03:24:16;12.90;;;8.63;;
8046;SDS011;67150;42.516;23.358;2023-05-17T03:26:45;12.73;;;8.40;;
8046;SDS011;67150;42.516;23.358;2023-05-17T03:29:12;10.70;;;8.53;;
8046;SDS011;67150;42.516;23.358;2023-05-17T03:31:39;12.73;;;9.97;;
8046;SDS011;67150;42.516;23.358;2023-05-17T03:34:07;11.97;;;8.63;;
8046;SDS011;67150;42.516;23.358;2023-05-17T03:36:34;13.87;;;9.60;;
8046;SDS011;67150;42.516;23.358;2023-05-17T03:39:01;13.87;;;8.97;;
8046;SDS011;67150;42.516;23.358;2023-05-17T03:41:29;10.37;;;8.57;;
8046;SDS011;67150;42.516;23.358;2023-05-17T03:43:58;13.27;;;9.90;;
8046;SDS011;67150;42.516;23.358;2023-05-17T03:46:26;11.53;;;10.20;;
8046;SDS011;67150;42.516;23.358;2023-05-17T03:48:53;11.73;;;9.70;;
8046;SDS011;67150;42.516;23.358;2023-05-17T03:51:20;12.60;;;9.70;;
8046;SDS011;67150;42.516;23.358;2023-05-17T03:53:49;14.30;;;10.27;;
8046;SDS011;67150;42.516;23.358;2023-05-17T03:56:18;14.70;;;11.13;;
8046;SDS011;67150;42.516;23.358;2023-05-17T03:58:45;13.57;;;10.33;;
8046;SDS011;67150;42.516;23.358;2023-05-17T04:01:14;10.93;;;9.70;;
8046;SDS011;67150;42.516;23.358;2023-05-17T04:03:41;13.37;;;10.40;;
8046;SDS011;67150;42.516;23.358;2023-05-17T04:06:09;14.47;;;10.83;;
8046;SDS011;67150;42.516;23.358;2023-05-17T04:08:36;14.30;;;10.17;;
8046;SDS011;67150;42.516;23.358;2023-05-17T04:11:03;13.53;;;10.50;;
8046;SDS011;67150;42.516;23.358;2023-05-17T04:13:35;13.97;;;10.47;;
8046;SDS011;67150;42.516;23.358;2023-05-17T04:16:02;11.63;;;10.20;;
8046;SDS011;67150;42.516;23.358;2023-05-17T04:18:33;12.50;;;11.20;;
8046;SDS011;67150;42.516;23.358;2023-05-17T04:21:00;13.30;;;11.30;;
8046;SDS011;67150;42.516;23.358;2023-05-17T04:23:28;13.73;;;10.73;;
8046;SDS011;67150;42.516;23.358;2023-05-17T04:25:55;13.37;;;10.60;;
8046;SDS011;67150;42.516;23.358;2023-05-17T04:28:24;15.90;;;11.43;;
8046;SDS011;67150;42.516;23.358;2023-05-17T04:30:51;16.07;;;11.03;;
8046;SDS011;67150;42.516;23.358;2023-05-17T04:33:19;15.97;;;11.10;;
8046;SDS011;67150;42.516;23.358;2023-05-17T04:35:48;15.30;;;11.53;;
8046;SDS011;67150;42.516;23.358;2023-05-17T04:38:16;15.77;;;11.40;;
8046;SDS011;67150;42.516;23.358;2023-05-17T04:40:43;15.57;;;10.80;;
8046;SDS011;67150;42.516;23.358;2023-05-17T04:43:10;13.50;;;11.13;;
8046;SDS011;67150;42.516;23.358;2023-05-17T04:45:38;14.70;;;11.27;;
8046;SDS011;67150;42.516;23.358;2023-05-17T04:48:05;13.33;;;11.07;;
8046;SDS011;67150;42.516;23.358;2023-05-17T04:50:33;14.57;;;11.40;;
8046;SDS011;67150;42.516;23.358;2023-05-17T04:53:01;13.10;;;11.00;;
8046;SDS011;67150;42.516;23.358;2023-05-17T04:55:29;12.73;;;10.40;;
8046;SDS011;67150;42.516;23.358;2023-05-17T04:57:56;12.37;;;10.63;;
8046;SDS011;67150;42.516;23.358;2023-05-17T05:00:23;14.23;;;11.73;;
8046;SDS011;67150;42.516;23.358;2023-05-17T05:02:53;13.03;;;11.47;;
8046;SDS011;67150;42.516;23.358;2023-05-17T05:05:20;14.77;;;11.70;;
8046;SDS011;67150;42.516;23.358;2023-05-17T05:07:49;14.23;;;11.33;;
8046;SDS011;67150;42.516;23.358;2023-05-17T05:10:18;14.03;;;11.47;;
8046;SDS011;67150;42.516;23.358;2023-05-17T05:12:45;17.23;;;11.63;;
8046;SDS011;67150;42.516;23.358;2023-05-17T05:15:12;15.13;;;11.10;;
8046;SDS011;67150;42.516;23.358;2023-05-17T05:17:40;13.70;;;10.77;;
8046;SDS011;67150;42.516;23.358;2023-05-17T05:20:07;17.17;;;10.80;;
8046;SDS011;67150;42.516;23.358;2023-05-17T05:22:35;14.47;;;11.07;;
8046;SDS011;67150;42.516;23.358;2023-05-17T05:25:03;15.40;;;10.90;;
8046;SDS011;67150;42.516;23.358;2023-05-17T05:27:32;13.10;;;11.07;;
8046;SDS011;67150;42.516;23.358;2023-05-17T05:30:00;14.37;;;11.13;;
8046;SDS011;67150;42.516;23.358;2023-05-17T05:32:28;14.67;;;11.27;;
8046;SDS011;67150;42.516;23.358;2023-05-17T05:34:56;14.63;;;11.03;;
8046;SDS011;67150;42.516;23.358;2023-05-17T05:37:24;14.37;;;11.13;;
8046;SDS011;67150;42.516;23.358;2023-05-17T05:39:51;14.30;;;10.83;;
8046;SDS011;67150;42.516;23.358;2023-05-17T05:42:18;13.93;;;10.47;;
8046;SDS011;67150;42.516;23.358;2023-05-17T05:44:47;13.13;;;11.33;;
8046;SDS011;67150;42.516;23.358;2023-05-17T05:47:14;14.30;;;10.57;;
8046;SDS011;67150;42.516;23.358;2023-05-17T05:49:42;13.33;;;10.83;;
8046;SDS011;67150;42.516;23.358;2023-05-17T05:52:09;11.27;;;10.07;;
8046;SDS011;67150;42.516;23.358;2023-05-17T05:54:36;17.60;;;10.33;;
8046;SDS011;67150;42.516;23.358;2023-05-17T05:57:04;12.57;;;10.00;;
8046;SDS011;67150;42.516;23.358;2023-05-17T05:59:31;10.93;;;9.77;;
8046;SDS011;67150;42.516;23.358;2023-05-17T06:02:00;12.53;;;10.00;;
8046;SDS011;67150;42.516;23.358;2023-05-17T06:04:27;14.10;;;10.63;;
8046;SDS011;67150;42.516;23.358;2023-05-17T06:06:55;12.83;;;9.30;;
8046;SDS011;67150;42.516;23.358;2023-05-17T06:09:22;13.03;;;9.07;;
8046;SDS011;67150;42.516;23.358;2023-05-17T06:11:50;11.97;;;9.17;;
8046;SDS011;67150;42.516;23.358;2023-05-17T06:14:19;12.43;;;9.87;;
8046;SDS011;67150;42.516;23.358;2023-05-17T06:16:46;12.93;;;9.53;;
8046;SDS011;67150;42.516;23.358;2023-05-17T06:19:15;14.00;;;10.33;;
8046;SDS011;67150;42.516;23.358;2023-05-17T06:21:42;12.83;;;8.90;;
8046;SDS011;67150;42.516;23.358;2023-05-17T06:24:10;12.33;;;9.80;;
8046;SDS011;67150;42.516;23.358;2023-05-17T06:26:37;12.03;;;9.00;;
8046;SDS011;67150;42.516;23.358;2023-05-17T06:29:05;13.10;;;9.20;;
8046;SDS011;67150;42.516;23.358;2023-05-17T06:31:33;11.37;;;8.50;;
8046;SDS011;67150;42.516;23.358;2023-05-17T06:34:00;12.03;;;8.77;;
8046;SDS011;67150;42.516;23.358;2023-05-17T06:36:29;10.10;;;9.00;;
8046;SDS011;67150;42.516;23.358;2023-05-17T06:38:56;11.40;;;8.13;;
8046;SDS011;67150;42.516;23.358;2023-05-17T06:41:23;10.93;;;8.70;;
8046;SDS011;67150;42.516;23.358;2023-05-17T06:43:51;9.83;;;8.73;;
8046;SDS011;67150;42.516;23.358;2023-05-17T06:46:18;12.70;;;8.50;;
8046;SDS011;67150;42.516;23.358;2023-05-17T06:48:45;10.17;;;8.67;;
8046;SDS011;67150;42.516;23.358;2023-05-17T06:51:13;11.53;;;8.70;;
8046;SDS011;67150;42.516;23.358;2023-05-17T06:53:41;9.57;;;7.77;;
8046;SDS011;67150;42.516;23.358;2023-05-17T06:56:08;11.83;;;8.30;;
8046;SDS011;67150;42.516;23.358;2023-05-17T06:58:36;10.90;;;8.40;;
8046;SDS011;67150;42.516;23.358;2023-05-17T07:01:03;10.67;;;8.67;;
8046;SDS011;67150;42.516;23.358;2023-05-17T07:03:31;10.23;;;8.63;;
8046;SDS011;67150;42.516;23.358;2023-05-17T07:05:58;11.03;;;8.30;;
8046;SDS011;67150;42.516;23.358;2023-05-17T07:08:26;10.53;;;8.60;;
8046;SDS011;67150;42.516;23.358;2023-05-17T07:10:54;11.97;;;8.50;;
8046;SDS011;67150;42.516;23.358;2023-05-17T07:13:22;11.43;;;8.60;;
8046;SDS011;67150;42.516;23.358;2023-05-17T07:15:49;12.37;;;8.50;;
8046;SDS011;67150;42.516;23.358;2023-05-17T07:18:16;10.20;;;8.43;;
8046;SDS011;67150;42.516;23.358;2023-05-17T07:20:44;11.93;;;7.83;;
8046;SDS011;67150;42.516;23.358;2023-05-17T07:23:11;12.77;;;8.07;;
8046;SDS011;67150;42.516;23.358;2023-05-17T07:25:41;11.80;;;8.37;;
8046;SDS011;67150;42.516;23.358;2023-05-17T07:28:10;12.37;;;8.03;;
8046;SDS011;67150;42.516;23.358;2023-05-17T07:30:37;9.53;;;8.40;;
8046;SDS011;67150;42.516;23.358;2023-05-17T07:33:04;10.13;;;8.37;;
8046;SDS011;67150;42.516;23.358;2023-05-17T07:35:31;10.87;;;8.47;;
8046;SDS011;67150;42.516;23.358;2023-05-17T07:37:59;9.40;;;7.63;;
8046;SDS011;67150;42.516;23.358;2023-05-17T07:40:29;10.87;;;8.40;;
8046;SDS011;67150;42.516;23.358;2023-05-17T07:42:56;9.33;;;7.80;;
8046;SDS011;67150;42.516;23.358;2023-05-17T07:45:25;10.67;;;7.73;;
8046;SDS011;67150;42.516;23.358;2023-05-17T07:47:52;8.90;;;8.00;;
8046;SDS011;67150;42.516;23.358;2023-05-17T07:50:20;10.03;;;8.20;;
8046;SDS011;67150;42.516;23.358;2023-05-17T07:52:47;12.03;;;8.47;;
8046;SDS011;67150;42.516;23.358;2023-05-17T07:55:15;10.43;;;8.13;;
8046;SDS011;67150;42.516;23.358;2023-05-17T07:57:42;9.13;;;7.80;;
8046;SDS011;67150;42.516;23.358;2023-05-17T08:00:12;10.90;;;7.93;;
8046;SDS011;67150;42.516;23.358;2023-05-17T08:02:41;9.23;;;7.50;;
8046;SDS011;67150;42.516;23.358;2023-05-17T08:05:08;10.57;;;7.87;;
8046;SDS011;67150;42.516;23.358;2023-05-17T08:07:38;11.03;;;7.77;;
8046;SDS011;67150;42.516;23.358;2023-05-17T08:10:06;10.87;;;8.47;;
8046;SDS011;67150;42.516;23.358;2023-05-17T08:12:33;9.57;;;7.90;;
8046;SDS011;67150;42.516;23.358;2023-05-17T08:15:01;10.03;;;7.60;;
8046;SDS011;67150;42.516;23.358;2023-05-17T08:17:28;9.30;;;8.03;;
8046;SDS011;67150;42.516;23.358;2023-05-17T08:19:57;9.93;;;7.77;;
8046;SDS011;67150;42.516;23.358;2023-05-17T08:22:24;10.10;;;7.87;;
8046;SDS011;67150;42.516;23.358;2023-05-17T08:24:51;8.40;;;7.57;;
8046;SDS011;67150;42.516;23.358;2023-05-17T08:27:19;10.30;;;7.43;;
8046;SDS011;67150;42.516;23.358;2023-05-17T08:29:46;10.37;;;7.80;;
8046;SDS011;67150;42.516;23.358;2023-05-17T08:32:13;9.63;;;7.27;;
8046;SDS011;67150;42.516;23.358;2023-05-17T08:34:44;11.67;;;8.30;;
8046;SDS011;67150;42.516;23.358;2023-05-17T08:37:13;10.67;;;7.50;;
8046;SDS011;67150;42.516;23.358;2023-05-17T08:39:40;8.97;;;7.63;;
8046;SDS011;67150;42.516;23.358;2023-05-17T08:42:07;10.73;;;8.13;;
8046;SDS011;67150;42.516;23.358;2023-05-17T08:44:35;9.87;;;7.83;;
8046;SDS011;67150;42.516;23.358;2023-05-17T08:47:03;11.87;;;7.33;;
8046;SDS011;67150;42.516;23.358;2023-05-17T08:49:31;12.40;;;7.37;;
8046;SDS011;67150;42.516;23.358;2023-05-17T08:52:02;13.60;;;8.13;;
8046;SDS011;67150;42.516;23.358;2023-05-17T08:54:35;9.67;;;7.63;;
8046;SDS011;67150;42.516;23.358;2023-05-17T08:57:03;9.83;;;7.70;;
8046;SDS011;67150;42.516;23.358;2023-05-17T08:59:32;10.73;;;7.20;;
8046;SDS011;67150;42.516;23.358;2023-05-17T09:02:00;9.50;;;7.63;;
8046;SDS011;67150;42.516;23.358;2023-05-17T09:04:28;10.10;;;8.07;;
8046;SDS011;67150;42.516;23.358;2023-05-17T09:06:56;11.07;;;7.83;;
8046;SDS011;67150;42.516;23.358;2023-05-17T09:09:24;11.37;;;7.83;;
8046;SDS011;67150;42.516;23.358;2023-05-17T09:11:53;10.47;;;7.63;;
8046;SDS011;67150;42.516;23.358;2023-05-17T09:14:20;10.47;;;7.50;;
8046;SDS011;67150;42.516;23.358;2023-05-17T09:16:50;11.03;;;8.30;;
8046;SDS011;67150;42.516;23.358;2023-05-17T09:19:22;12.90;;;7.40;;
8046;SDS011;67150;42.516;23.358;2023-05-17T09:21:50;11.93;;;7.43;;
8046;SDS011;67150;42.516;23.358;2023-05-17T09:24:17;10.13;;;7.90;;
8046;SDS011;67150;42.516;23.358;2023-05-17T09:26:45;11.37;;;7.37;;
8046;SDS011;67150;42.516;23.358;2023-05-17T09:29:14;10.13;;;8.20;;
8046;SDS011;67150;42.516;23.358;2023-05-17T09:31:42;10.90;;;7.57;;
8046;SDS011;67150;42.516;23.358;2023-05-17T09:34:10;10.63;;;7.37;;
8046;SDS011;67150;42.516;23.358;2023-05-17T09:36:40;14.43;;;7.93;;
8046;SDS011;67150;42.516;23.358;2023-05-17T09:39:10;11.23;;;7.13;;
8046;SDS011;67150;42.516;23.358;2023-05-17T09:41:39;10.00;;;7.50;;
8046;SDS011;67150;42.516;23.358;2023-05-17T09:44:09;12.47;;;7.10;;
8046;SDS011;67150;42.516;23.358;2023-05-17T09:46:40;10.30;;;7.47;;
8046;SDS011;67150;42.516;23.358;2023-05-17T09:49:08;10.43;;;7.60;;
8046;SDS011;67150;42.516;23.358;2023-05-17T09:51:38;12.37;;;8.03;;
8046;SDS011;67150;42.516;23.358;2023-05-17T09:54:08;11.97;;;7.10;;
8046;SDS011;67150;42.516;23.358;2023-05-17T09:56:38;11.83;;;7.10;;
8046;SDS011;67150;42.516;23.358;2023-05-17T09:59:09;10.17;;;7.97;;
8046;SDS011;67150;42.516;23.358;2023-05-17T10:01:41;12.73;;;8.20;;
8046;SDS011;67150;42.516;23.358;2023-05-17T10:04:12;14.07;;;7.63;;
8046;SDS011;67150;42.516;23.358;2023-05-17T10:06:45;11.77;;;8.33;;
8046;SDS011;67150;42.516;23.358;2023-05-17T10:09:16;9.67;;;7.30;;
8046;SDS011;67150;42.516;23.358;2023-05-17T10:11:50;10.10;;;7.60;;
8046;SDS011;67150;42.516;23.358;2023-05-17T10:14:22;13.93;;;7.93;;
8046;SDS011;67150;42.516;23.358;2023-05-17T10:16:58;9.90;;;7.70;;
8046;SDS011;67150;42.516;23.358;2023-05-17T10:19:30;10.20;;;7.83;;
8046;SDS011;67150;42.516;23.358;2023-05-17T10:22:01;10.87;;;7.83;;
8046;SDS011;67150;42.516;23.358;2023-05-17T10:24:33;12.57;;;7.40;;
8046;SDS011;67150;42.516;23.358;2023-05-17T10:27:03;10.60;;;7.23;;
8046;SDS011;67150;42.516;23.358;2023-05-17T10:29:32;11.63;;;8.10;;
8046;SDS011;67150;42.516;23.358;2023-05-17T10:32:03;8.67;;;7.27;;
8046;SDS011;67150;42.516;23.358;2023-05-17T10:34:33;11.37;;;7.03;;
8046;SDS011;67150;42.516;23.358;2023-05-17T10:37:01;10.17;;;6.80;;
8046;SDS011;67150;42.516;23.358;2023-05-17T10:39:29;10.20;;;7.13;;
8046;SDS011;67150;42.516;23.358;2023-05-17T10:41:59;12.43;;;7.97;;
8046;SDS011;67150;42.516;23.358;2023-05-17T10:44:29;9.73;;;7.00;;
8046;SDS011;67150;42.516;23.358;2023-05-17T10:46:58;11.27;;;7.77;;
8046;SDS011;67150;42.516;23.358;2023-05-17T10:49:28;9.63;;;7.43;;
8046;SDS011;67150;42.516;23.358;2023-05-17T10:51:56;10.20;;;7.20;;
8046;SDS011;67150;42.516;23.358;2023-05-17T10:54:33;9.80;;;7.43;;
8046;SDS011;67150;42.516;23.358;2023-05-17T10:57:03;10.87;;;7.47;;
8046;SDS011;67150;42.516;23.358;2023-05-17T10:59:31;11.33;;;7.20;;
8046;SDS011;67150;42.516;23.358;2023-05-17T11:02:01;9.77;;;7.17;;
8046;SDS011;67150;42.516;23.358;2023-05-17T11:04:36;8.07;;;6.90;;
8046;SDS011;67150;42.516;23.358;2023-05-17T11:07:24;9.60;;;7.07;;
8046;SDS011;67150;42.516;23.358;2023-05-17T11:09:54;10.73;;;6.93;;
8046;SDS011;67150;42.516;23.358;2023-05-17T11:12:34;11.73;;;6.73;;
8046;SDS011;67150;42.516;23.358;2023-05-17T11:15:05;11.43;;;6.63;;
8046;SDS011;67150;42.516;23.358;2023-05-17T11:17:34;10.17;;;6.60;;
8046;SDS011;67150;42.516;23.358;2023-05-17T11:20:05;10.27;;;6.50;;
8046;SDS011;67150;42.516;23.358;2023-05-17T11:22:36;9.50;;;6.50;;
8046;SDS011;67150;42.516;23.358;2023-05-17T11:25:06;11.20;;;6.17;;
8046;SDS011;67150;42.516;23.358;2023-05-17T11:27:46;7.93;;;6.13;;
8046;SDS011;67150;42.516;23.358;2023-05-17T11:30:16;10.27;;;7.10;;
8046;SDS011;67150;42.516;23.358;2023-05-17T11:32:50;9.23;;;6.70;;
8046;SDS011;67150;42.516;23.358;2023-05-17T11:35:22;8.87;;;5.90;;
8046;SDS011;67150;42.516;23.358;2023-05-17T11:37:51;8.43;;;5.00;;
8046;SDS011;67150;42.516;23.358;2023-05-17T11:40:23;10.47;;;5.60;;
8046;SDS011;67150;42.516;23.358;2023-05-17T11:45:40;10.37;;;5.77;;
8046;SDS011;67150;42.516;23.358;2023-05-17T11:48:09;8.60;;;5.33;;
8046;SDS011;67150;42.516;23.358;2023-05-17T11:50:39;9.00;;;6.03;;
8046;SDS011;67150;42.516;23.358;2023-05-17T11:53:07;7.27;;;5.53;;
8046;SDS011;67150;42.516;23.358;2023-05-17T11:55:36;9.23;;;6.07;;
8046;SDS011;67150;42.516;23.358;2023-05-17T11:58:06;10.97;;;6.10;;
8046;SDS011;67150;42.516;23.358;2023-05-17T12:00:35;6.77;;;5.20;;
8046;SDS011;67150;42.516;23.358;2023-05-17T12:05:48;9.93;;;6.00;;
8046;SDS011;67150;42.516;23.358;2023-05-17T12:08:16;8.97;;;6.17;;
8046;SDS011;67150;42.516;23.358;2023-05-17T12:10:45;9.67;;;5.83;;
8046;SDS011;67150;42.516;23.358;2023-05-17T12:13:14;9.30;;;6.30;;
8046;SDS011;67150;42.516;23.358;2023-05-17T12:15:43;8.67;;;6.37;;
8046;SDS011;67150;42.516;23.358;2023-05-17T12:18:12;8.97;;;6.40;;
8046;SDS011;67150;42.516;23.358;2023-05-17T12:20:53;8.80;;;6.60;;
8046;SDS011;67150;42.516;23.358;2023-05-17T12:23:27;8.30;;;6.17;;
8046;SDS011;67150;42.516;23.358;2023-05-17T12:26:03;9.33;;;6.70;;
8046;SDS011;67150;42.516;23.358;2023-05-17T12:28:32;9.23;;;6.30;;
8046;SDS011;67150;42.516;23.358;2023-05-17T12:31:02;7.07;;;5.47;;
8046;SDS011;67150;42.516;23.358;2023-05-17T12:33:32;8.17;;;5.80;;
8046;SDS011;67150;42.516;23.358;2023-05-17T12:36:05;6.93;;;6.10;;
8046;SDS011;67150;42.516;23.358;2023-05-17T12:38:34;8.07;;;6.10;;
8046;SDS011;67150;42.516;23.358;2023-05-17T12:41:03;8.73;;;5.90;;
8046;SDS011;67150;42.516;23.358;2023-05-17T12:43:32;8.17;;;6.60;;
8046;SDS011;67150;42.516;23.358;2023-05-17T12:46:04;11.37;;;6.53;;
8046;SDS011;67150;42.516;23.358;2023-05-17T12:48:35;6.90;;;5.83;;
8046;SDS011;67150;42.516;23.358;2023-05-17T12:51:06;8.13;;;5.77;;
8046;SDS011;67150;42.516;23.358;2023-05-17T12:53:37;10.23;;;6.47;;
8046;SDS011;67150;42.516;23.358;2023-05-17T12:56:06;6.30;;;5.63;;
8046;SDS011;67150;42.516;23.358;2023-05-17T12:58:34;8.83;;;6.33;;
8046;SDS011;67150;42.516;23.358;2023-05-17T13:01:01;8.33;;;6.10;;
8046;SDS011;67150;42.516;23.358;2023-05-17T13:03:31;8.93;;;6.30;;
8046;SDS011;67150;42.516;23.358;2023-05-17T13:06:03;7.70;;;5.63;;
8046;SDS011;67150;42.516;23.358;2023-05-17T13:08:34;9.57;;;6.40;;
8046;SDS011;67150;42.516;23.358;2023-05-17T13:11:08;8.40;;;6.10;;
8046;SDS011;67150;42.516;23.358;2023-05-17T13:13:37;10.60;;;6.07;;
8046;SDS011;67150;42.516;23.358;2023-05-17T13:16:05;7.57;;;5.67;;
8046;SDS011;67150;42.516;23.358;2023-05-17T13:18:49;9.53;;;6.27;;
8046;SDS011;67150;42.516;23.358;2023-05-17T13:21:17;8.87;;;5.97;;
8046;SDS011;67150;42.516;23.358;2023-05-17T13:23:47;10.67;;;6.17;;
8046;SDS011;67150;42.516;23.358;2023-05-17T13:26:15;7.03;;;5.93;;
8046;SDS011;67150;42.516;23.358;2023-05-17T13:28:43;6.27;;;5.43;;
8046;SDS011;67150;42.516;23.358;2023-05-17T13:31:11;6.50;;;5.87;;
8046;SDS011;67150;42.516;23.358;2023-05-17T13:33:39;7.73;;;5.83;;
8046;SDS011;67150;42.516;23.358;2023-05-17T13:36:06;7.40;;;5.97;;
8046;SDS011;67150;42.516;23.358;2023-05-17T13:38:34;8.67;;;5.97;;
8046;SDS011;67150;42.516;23.358;2023-05-17T13:41:02;8.33;;;6.00;;
8046;SDS011;67150;42.516;23.358;2023-05-17T13:43:33;8.83;;;5.97;;
8046;SDS011;67150;42.516;23.358;2023-05-17T13:46:01;8.30;;;5.60;;
8046;SDS011;67150;42.516;23.358;2023-05-17T13:48:28;6.87;;;6.00;;
8046;SDS011;67150;42.516;23.358;2023-05-17T13:50:56;8.10;;;5.57;;
8046;SDS011;67150;42.516;23.358;2023-05-17T13:53:24;7.00;;;5.43;;
8046;SDS011;67150;42.516;23.358;2023-05-17T13:55:51;7.53;;;5.67;;
8046;SDS011;67150;42.516;23.358;2023-05-17T13:58:20;8.13;;;6.33;;
8046;SDS011;67150;42.516;23.358;2023-05-17T14:00:47;6.50;;;5.80;;
8046;SDS011;67150;42.516;23.358;2023-05-17T14:03:16;8.40;;;6.23;;
8046;SDS011;67150;42.516;23.358;2023-05-17T14:05:43;7.93;;;5.90;;
8046;SDS011;67150;42.516;23.358;2023-05-17T14:08:14;7.47;;;6.20;;
8046;SDS011;67150;42.516;23.358;2023-05-17T14:10:41;7.47;;;5.63;;
8046;SDS011;67150;42.516;23.358;2023-05-17T14:13:08;8.27;;;5.90;;
8046;SDS011;67150;42.516;23.358;2023-05-17T14:15:38;8.37;;;5.60;;
8046;SDS011;67150;42.516;23.358;2023-05-17T14:18:05;8.23;;;6.10;;
8046;SDS011;67150;42.516;23.358;2023-05-17T14:20:33;8.17;;;5.80;;
8046;SDS011;67150;42.516;23.358;2023-05-17T14:23:00;9.20;;;5.77;;
8046;SDS011;67150;42.516;23.358;2023-05-17T14:25:28;9.73;;;5.57;;
8046;SDS011;67150;42.516;23.358;2023-05-17T14:27:55;7.10;;;5.97;;
8046;SDS011;67150;42.516;23.358;2023-05-17T14:30:22;7.07;;;5.90;;
8046;SDS011;67150;42.516;23.358;2023-05-17T14:32:52;7.47;;;6.07;;
8046;SDS011;67150;42.516;23.358;2023-05-17T14:35:19;7.23;;;5.63;;
8046;SDS011;67150;42.516;23.358;2023-05-17T14:37:49;7.70;;;5.67;;
8046;SDS011;67150;42.516;23.358;2023-05-17T14:40:17;7.03;;;5.80;;
8046;SDS011;67150;42.516;23.358;2023-05-17T14:42:44;7.63;;;6.03;;
8046;SDS011;67150;42.516;23.358;2023-05-17T14:45:11;7.50;;;5.37;;
8046;SDS011;67150;42.516;23.358;2023-05-17T14:47:39;7.23;;;5.93;;
8046;SDS011;67150;42.516;23.358;2023-05-17T14:50:08;7.13;;;5.90;;
8046;SDS011;67150;42.516;23.358;2023-05-17T14:52:36;7.93;;;5.83;;